Time;durP1;ratioP1;P1;durP2;ratioP2;P2;SDS_P1;SDS_P2;PMS_P1;PMS_P2;Temp;Humidity;BMP_temperature;BMP_pressure;BME280_temperature;BME280_humidity;BME280_pressure;Samples;Min_cycle;Max_cycle;Signal;HPM_P1;HPM_P2
2021/10/20 00:00:36;;;;;;;15.50;14.63;;;15.50;99.90;;;;;;5091262;28;20461;-72
2021/10/20 00:03:03;;;;;;;15.43;14.50;;;15.50;99.90;;;;;;5093137;28;20470;-71
2021/10/20 00:05:31;;;;;;;16.17;14.97;;;15.40;99.90;;;;;;5097451;28;20462;-71
2021/10/20 00:08:00;;;;;;;16.40;15.40;;;15.40;99.90;;;;;;5097644;28;20465;-71
2021/10/20 00:10:27;;;;;;;15.53;14.73;;;15.40;99.90;;;;;;5092811;28;20508;-71
2021/10/20 00:12:53;;;;;;;16.20;15.30;;;15.30;99.90;;;;;;5092474;28;20606;-71
2021/10/20 00:15:24;;;;;;;15.83;15.03;;;15.30;99.90;;;;;;5099677;28;20560;-71
2021/10/20 00:17:51;;;;;;;15.60;14.80;;;15.30;99.90;;;;;;5098702;28;20457;-74
2021/10/20 00:20:22;;;;;;;15.93;14.93;;;15.30;99.90;;;;;;5098906;28;20461;-73
2021/10/20 00:22:51;;;;;;;15.63;14.63;;;15.30;99.90;;;;;;5095800;28;21031;-73
2021/10/20 00:25:18;;;;;;;15.73;14.83;;;15.20;99.90;;;;;;5098059;28;20902;-71
2021/10/20 00:27:46;;;;;;;16.20;15.40;;;15.20;99.90;;;;;;5095223;28;20967;-71
2021/10/20 00:30:15;;;;;;;15.47;14.67;;;15.20;99.90;;;;;;5097101;28;20489;-71
2021/10/20 00:32:44;;;;;;;16.63;15.73;;;15.10;99.90;;;;;;5099596;28;20547;-71
2021/10/20 00:35:12;;;;;;;16.87;15.47;;;15.10;99.90;;;;;;5097921;28;20518;-74
2021/10/20 00:37:40;;;;;;;16.10;15.10;;;15.10;99.90;;;;;;5100570;28;20829;-71
2021/10/20 00:40:08;;;;;;;16.77;15.60;;;15.20;99.90;;;;;;5086835;28;20812;-71
2021/10/20 00:42:36;;;;;;;15.57;14.63;;;15.20;99.90;;;;;;5099470;28;20552;-72
2021/10/20 00:45:06;;;;;;;16.73;15.47;;;15.20;99.90;;;;;;5092326;28;20523;-71
2021/10/20 00:47:34;;;;;;;16.53;15.33;;;15.20;99.90;;;;;;5097164;28;20451;-73
2021/10/20 00:50:03;;;;;;;16.10;15.03;;;15.20;99.90;;;;;;5098556;28;20481;-71
2021/10/20 00:52:32;;;;;;;15.83;15.00;;;15.30;99.90;;;;;;5095526;28;20466;-73
2021/10/20 00:54:59;;;;;;;15.47;14.67;;;15.30;99.90;;;;;;5094405;28;20479;-71
2021/10/20 00:57:29;;;;;;;16.47;15.40;;;15.30;99.90;;;;;;5103489;28;20467;-74
2021/10/20 00:59:57;;;;;;;15.57;14.67;;;15.30;99.90;;;;;;5099355;28;20465;-69
2021/10/20 01:02:24;;;;;;;15.13;14.33;;;15.30;99.90;;;;;;5093111;28;20461;-69
2021/10/20 01:04:51;;;;;;;16.70;15.70;;;15.20;99.90;;;;;;5094360;28;20462;-70
2021/10/20 01:07:22;;;;;;;16.50;15.30;;;15.20;99.90;;;;;;5097126;28;20480;-69
2021/10/20 01:09:50;;;;;;;16.00;15.00;;;15.20;99.90;;;;;;5097189;28;20488;-71
2021/10/20 01:12:18;;;;;;;16.27;15.37;;;15.20;99.90;;;;;;5090974;28;20462;-69
2021/10/20 01:14:46;;;;;;;15.80;15.00;;;15.10;99.90;;;;;;5096141;28;20465;-69
2021/10/20 01:17:12;;;;;;;16.50;15.60;;;15.00;99.90;;;;;;5090233;28;20454;-68
2021/10/20 01:19:43;;;;;;;17.10;15.90;;;15.00;99.90;;;;;;5099685;28;20466;-71
2021/10/20 01:22:12;;;;;;;16.90;15.80;;;15.00;99.90;;;;;;5099811;28;20536;-71
2021/10/20 01:24:40;;;;;;;17.53;16.53;;;14.90;99.90;;;;;;5098165;28;20468;-67
2021/10/20 01:27:08;;;;;;;16.60;15.70;;;15.00;99.90;;;;;;5099479;28;20992;-70
2021/10/20 01:29:35;;;;;;;16.60;15.50;;;15.00;99.90;;;;;;5097478;28;20505;-69
2021/10/20 01:32:05;;;;;;;16.57;15.17;;;15.00;99.90;;;;;;5094061;28;20460;-69
2021/10/20 01:34:32;;;;;;;17.17;16.13;;;15.00;99.90;;;;;;5092198;28;20459;-69
2021/10/20 01:37:02;;;;;;;16.90;16.00;;;14.90;99.90;;;;;;5100412;28;20462;-70
2021/10/20 01:39:32;;;;;;;16.43;15.43;;;15.00;99.90;;;;;;5104546;28;20518;-69
2021/10/20 01:41:59;;;;;;;18.97;16.67;;;14.90;99.90;;;;;;5095783;28;20450;-69
2021/10/20 01:44:27;;;;;;;16.10;15.20;;;14.90;99.90;;;;;;5093575;28;20946;-73
2021/10/20 01:46:54;;;;;;;17.10;16.17;;;14.90;99.90;;;;;;5090034;28;20453;-72
2021/10/20 01:49:21;;;;;;;16.63;15.73;;;14.80;99.90;;;;;;5096815;28;20482;-73
2021/10/20 01:51:48;;;;;;;17.20;16.10;;;14.80;99.90;;;;;;5094842;28;20940;-71
2021/10/20 01:54:15;;;;;;;15.90;15.00;;;14.90;99.90;;;;;;5101664;28;20484;-71
2021/10/20 01:56:46;;;;;;;16.33;15.40;;;14.90;99.90;;;;;;5097012;28;20797;-70
2021/10/20 01:59:13;;;;;;;15.63;14.80;;;14.90;99.90;;;;;;5100474;28;20457;-71
2021/10/20 02:01:40;;;;;;;16.60;15.70;;;14.90;99.90;;;;;;5094003;28;20511;-70
2021/10/20 02:04:11;;;;;;;16.80;15.60;;;14.80;99.90;;;;;;5096066;28;20462;-71
2021/10/20 02:06:41;;;;;;;16.80;15.67;;;14.90;99.90;;;;;;5094165;28;20537;-70
2021/10/20 02:09:09;;;;;;;16.20;15.30;;;14.90;99.90;;;;;;5095418;28;20493;-71
2021/10/20 02:11:37;;;;;;;16.23;14.90;;;15.00;99.90;;;;;;5091595;28;20473;-71
2021/10/20 02:14:07;;;;;;;16.03;15.10;;;15.00;99.90;;;;;;5098002;28;20457;-70
2021/10/20 02:16:34;;;;;;;15.67;14.70;;;15.00;99.90;;;;;;5092413;28;20548;-72
2021/10/20 02:19:02;;;;;;;17.57;15.90;;;15.10;99.90;;;;;;5096956;28;20822;-71
2021/10/20 02:21:31;;;;;;;17.07;15.93;;;15.20;99.90;;;;;;5103793;28;20449;-71
2021/10/20 02:23:58;;;;;;;16.53;15.10;;;15.20;99.90;;;;;;5101047;28;20486;-71
2021/10/20 02:26:25;;;;;;;17.27;15.57;;;15.20;99.90;;;;;;5099530;28;20461;-71
2021/10/20 02:28:52;;;;;;;16.30;15.40;;;15.20;99.90;;;;;;5095206;28;20453;-71
2021/10/20 02:31:21;;;;;;;15.70;14.90;;;15.20;99.90;;;;;;5093796;28;20441;-72
2021/10/20 02:33:48;;;;;;;17.93;16.37;;;15.20;99.90;;;;;;5103112;28;20823;-71
2021/10/20 02:36:15;;;;;;;16.90;15.90;;;15.20;99.90;;;;;;5096934;28;20469;-71
2021/10/20 02:38:42;;;;;;;16.10;15.20;;;15.30;99.90;;;;;;5098903;28;21027;-70
2021/10/20 02:41:09;;;;;;;16.60;15.60;;;15.30;99.90;;;;;;5103231;28;20460;-72
2021/10/20 02:43:39;;;;;;;17.03;15.50;;;15.30;99.90;;;;;;5099324;28;20525;-71
2021/10/20 02:46:07;;;;;;;16.60;15.70;;;15.40;99.90;;;;;;5093564;28;20537;-71
2021/10/20 02:48:36;;;;;;;15.87;15.07;;;15.40;99.90;;;;;;5088143;28;20841;-71
2021/10/20 02:51:03;;;;;;;16.67;15.57;;;15.40;99.90;;;;;;5092879;28;20921;-71
2021/10/20 02:53:31;;;;;;;15.93;15.07;;;15.40;99.90;;;;;;5096514;28;20460;-70
2021/10/20 02:55:58;;;;;;;16.73;15.63;;;15.40;99.90;;;;;;5094172;28;20466;-71
2021/10/20 02:58:26;;;;;;;15.97;15.10;;;15.30;99.90;;;;;;5098298;28;20454;-71
2021/10/20 03:00:54;;;;;;;16.50;15.50;;;15.40;99.90;;;;;;5095854;28;20454;-72
2021/10/20 03:03:21;;;;;;;16.93;15.63;;;15.30;99.90;;;;;;5092773;28;20542;-71
2021/10/20 03:05:49;;;;;;;16.93;15.87;;;15.40;99.90;;;;;;5093142;28;20545;-71
2021/10/20 03:08:16;;;;;;;16.27;15.23;;;15.40;99.90;;;;;;5092743;28;21227;-72
2021/10/20 03:10:44;;;;;;;16.30;15.30;;;15.40;99.90;;;;;;5095927;28;20568;-71
2021/10/20 03:13:11;;;;;;;16.37;15.37;;;15.40;99.90;;;;;;5096069;28;20465;-71
2021/10/20 03:15:39;;;;;;;17.13;16.03;;;15.40;99.90;;;;;;5096078;28;20490;-70
2021/10/20 03:18:06;;;;;;;16.63;15.73;;;15.40;99.90;;;;;;5100455;28;20452;-71
2021/10/20 03:20:33;;;;;;;16.50;15.50;;;15.50;99.90;;;;;;5102131;28;20465;-72
2021/10/20 03:23:01;;;;;;;17.20;16.20;;;15.50;99.90;;;;;;5091570;28;20477;-71
2021/10/20 03:25:28;;;;;;;16.20;15.13;;;15.50;99.90;;;;;;5096478;28;20462;-71
2021/10/20 03:27:56;;;;;;;17.00;15.90;;;15.50;99.90;;;;;;5095114;28;20465;-71
2021/10/20 03:30:24;;;;;;;16.60;15.70;;;15.50;99.90;;;;;;5085844;28;20494;-73
2021/10/20 03:32:51;;;;;;;16.70;15.60;;;15.50;99.90;;;;;;5095109;28;20464;-72
2021/10/20 03:35:18;;;;;;;16.93;15.93;;;15.50;99.90;;;;;;5103785;28;21078;-72
2021/10/20 03:37:46;;;;;;;16.20;15.40;;;15.50;99.90;;;;;;5094718;28;20466;-71
2021/10/20 03:40:15;;;;;;;16.37;15.43;;;15.50;99.90;;;;;;5101965;28;20461;-72
2021/10/20 03:42:42;;;;;;;18.40;16.60;;;15.50;99.90;;;;;;5102948;28;20457;-71
2021/10/20 03:45:11;;;;;;;17.07;15.83;;;15.50;99.90;;;;;;5092352;28;20454;-73
2021/10/20 03:47:37;;;;;;;17.43;16.23;;;15.40;99.90;;;;;;5097220;28;20462;-72
2021/10/20 03:50:06;;;;;;;17.57;16.27;;;15.40;99.90;;;;;;5098108;28;20485;-70
2021/10/20 03:52:33;;;;;;;15.90;15.00;;;15.40;99.90;;;;;;5092526;28;20461;-74
2021/10/20 03:55:00;;;;;;;17.10;16.17;;;15.40;99.90;;;;;;5102718;28;20478;-71
2021/10/20 03:57:33;;;;;;;17.33;16.27;;;15.40;99.90;;;;;;5097517;28;20533;-71
2021/10/20 04:00:00;;;;;;;17.30;16.20;;;15.40;99.90;;;;;;5100489;28;20464;-71
2021/10/20 04:02:27;;;;;;;16.53;15.53;;;15.40;99.90;;;;;;5083171;28;20497;-72
2021/10/20 04:04:53;;;;;;;17.57;16.40;;;15.40;99.90;;;;;;5090800;28;20454;-73
2021/10/20 04:07:20;;;;;;;16.97;15.93;;;15.40;99.90;;;;;;5090312;28;20506;-71
2021/10/20 04:09:47;;;;;;;17.97;16.97;;;15.40;99.90;;;;;;5100070;28;20485;-71
2021/10/20 04:12:14;;;;;;;16.87;15.87;;;15.30;99.90;;;;;;5094782;28;20501;-71
2021/10/20 04:14:43;;;;;;;17.67;16.20;;;15.30;99.90;;;;;;5099964;28;20507;-72
2021/10/20 04:17:09;;;;;;;17.80;16.60;;;15.30;99.90;;;;;;5084951;28;20469;-74
2021/10/20 04:19:37;;;;;;;17.10;16.10;;;15.20;99.90;;;;;;5090894;28;20485;-72
2021/10/20 04:22:04;;;;;;;16.57;15.67;;;15.20;99.90;;;;;;5091958;28;20492;-71
2021/10/20 04:24:31;;;;;;;17.67;16.37;;;15.20;99.90;;;;;;5093094;28;20938;-71
2021/10/20 04:26:58;;;;;;;17.87;16.67;;;15.20;99.90;;;;;;5085485;28;20468;-71
2021/10/20 04:29:25;;;;;;;17.97;16.77;;;15.20;99.90;;;;;;5095214;28;20465;-70
2021/10/20 04:31:57;;;;;;;17.63;16.40;;;15.20;99.90;;;;;;5090924;28;20458;-73
2021/10/20 04:34:24;;;;;;;17.67;16.57;;;15.20;99.90;;;;;;5090548;28;20458;-70
2021/10/20 04:36:51;;;;;;;17.03;15.97;;;15.20;99.90;;;;;;5093220;28;20466;-71
2021/10/20 04:39:18;;;;;;;17.23;15.93;;;15.20;99.90;;;;;;5093591;28;20965;-71
2021/10/20 04:41:44;;;;;;;17.50;16.27;;;15.20;99.90;;;;;;5091158;28;20466;-71
2021/10/20 04:44:12;;;;;;;17.87;16.67;;;15.10;99.90;;;;;;5090893;28;20462;-74
2021/10/20 04:46:39;;;;;;;18.20;16.80;;;15.20;99.90;;;;;;5090320;28;21076;-73
2021/10/20 04:49:08;;;;;;;18.13;16.30;;;15.20;99.90;;;;;;5088602;28;20484;-73
2021/10/20 04:51:35;;;;;;;16.50;15.60;;;15.20;99.90;;;;;;5091171;28;21054;-71
2021/10/20 04:54:02;;;;;;;17.10;16.00;;;15.20;99.90;;;;;;5096632;28;20495;-72
2021/10/20 04:56:29;;;;;;;16.80;15.80;;;15.20;99.90;;;;;;5093640;28;20458;-72
2021/10/20 04:58:57;;;;;;;18.07;16.57;;;15.20;99.90;;;;;;5094049;28;20462;-72
2021/10/20 05:01:24;;;;;;;19.27;17.33;;;15.20;99.90;;;;;;5089024;28;20480;-74
2021/10/20 05:03:51;;;;;;;18.90;17.60;;;15.20;99.90;;;;;;5091663;28;20462;-74
2021/10/20 05:06:19;;;;;;;20.10;18.60;;;15.30;99.90;;;;;;5091887;28;20458;-73
2021/10/20 05:08:46;;;;;;;20.40;18.60;;;15.30;99.90;;;;;;5083231;28;20469;-72
2021/10/20 05:11:13;;;;;;;18.40;17.10;;;15.30;99.90;;;;;;5085395;28;20733;-74
2021/10/20 05:13:40;;;;;;;18.10;16.80;;;15.20;99.90;;;;;;5096383;28;20457;-72
2021/10/20 05:16:07;;;;;;;18.77;17.57;;;15.30;99.90;;;;;;5087459;28;20454;-72
2021/10/20 05:18:34;;;;;;;18.37;17.17;;;15.20;99.90;;;;;;5085355;28;20897;-74
2021/10/20 05:21:01;;;;;;;18.13;16.93;;;15.30;99.90;;;;;;5092604;28;20982;-71
2021/10/20 05:23:29;;;;;;;18.30;17.00;;;15.30;99.90;;;;;;5091120;28;20969;-71
2021/10/20 05:25:56;;;;;;;18.90;17.60;;;15.30;99.90;;;;;;5096156;28;20977;-72
2021/10/20 05:28:23;;;;;;;18.70;17.40;;;15.20;99.90;;;;;;5094356;28;20831;-70
2021/10/20 05:30:52;;;;;;;18.40;17.00;;;15.20;99.90;;;;;;5082217;28;20489;-72
2021/10/20 05:33:19;;;;;;;17.80;16.50;;;15.30;99.90;;;;;;5076101;28;20454;-72
2021/10/20 05:35:47;;;;;;;16.80;15.77;;;15.20;99.90;;;;;;5086514;28;20458;-72
2021/10/20 05:38:15;;;;;;;18.73;17.20;;;15.30;99.90;;;;;;5091418;28;20461;-71
2021/10/20 05:40:43;;;;;;;17.97;16.97;;;15.30;99.90;;;;;;5101066;28;20462;-75
2021/10/20 05:43:10;;;;;;;19.23;17.50;;;15.30;99.90;;;;;;5101296;28;20453;-71
2021/10/20 05:45:37;;;;;;;17.70;16.67;;;15.40;99.90;;;;;;5083808;28;20454;-74
2021/10/20 05:48:05;;;;;;;17.80;16.10;;;15.50;99.90;;;;;;5087357;28;20846;-72
2021/10/20 05:50:32;;;;;;;18.30;17.20;;;15.60;99.90;;;;;;5088759;28;20995;-71
2021/10/20 05:52:59;;;;;;;18.93;17.63;;;15.60;99.90;;;;;;5086170;28;20911;-73
2021/10/20 05:55:26;;;;;;;17.80;16.50;;;15.60;99.90;;;;;;5084815;28;20480;-71
2021/10/20 05:57:55;;;;;;;18.10;16.90;;;15.60;99.90;;;;;;5096406;28;20459;-71
2021/10/20 06:00:22;;;;;;;18.57;17.10;;;15.60;99.90;;;;;;5090626;28;20466;-71
2021/10/20 06:02:51;;;;;;;18.10;16.90;;;15.50;99.90;;;;;;5088984;28;20469;-72
2021/10/20 06:05:18;;;;;;;18.70;17.60;;;15.40;99.90;;;;;;5094458;28;20462;-70
2021/10/20 06:07:46;;;;;;;18.93;17.63;;;15.30;99.90;;;;;;5087995;28;22580;-71
2021/10/20 06:10:15;;;;;;;18.63;17.40;;;15.30;99.90;;;;;;5075071;28;20490;-74
2021/10/20 06:12:43;;;;;;;18.70;17.50;;;15.40;99.90;;;;;;5077847;28;20473;-72
2021/10/20 06:15:12;;;;;;;18.20;16.93;;;15.40;99.90;;;;;;5083143;28;20469;-71
2021/10/20 06:17:40;;;;;;;19.57;17.97;;;15.50;99.90;;;;;;5079173;28;20473;-73
2021/10/20 06:20:09;;;;;;;18.17;16.97;;;15.60;99.90;;;;;;5089212;28;20555;-72
2021/10/20 06:22:37;;;;;;;20.00;18.53;;;15.60;99.90;;;;;;5085220;28;20496;-74
2021/10/20 06:25:05;;;;;;;20.57;18.67;;;15.60;99.90;;;;;;5085457;28;21044;-72
2021/10/20 06:27:33;;;;;;;20.10;18.50;;;15.50;99.90;;;;;;5090032;28;20542;-72
2021/10/20 06:30:00;;;;;;;22.40;20.10;;;15.40;99.90;;;;;;5089258;28;20475;-73
2021/10/20 06:32:31;;;;;;;20.27;18.87;;;15.30;99.90;;;;;;5086735;28;20461;-73
2021/10/20 06:34:58;;;;;;;20.30;18.67;;;15.30;99.90;;;;;;5086193;28;20565;-72
2021/10/20 06:37:27;;;;;;;20.10;18.20;;;15.40;99.90;;;;;;5084806;28;20537;-70
2021/10/20 06:39:55;;;;;;;21.13;19.77;;;15.50;99.90;;;;;;5087723;28;20462;-69
2021/10/20 06:42:22;;;;;;;19.93;18.00;;;15.60;99.90;;;;;;5090648;28;20453;-69
2021/10/20 06:44:49;;;;;;;20.17;18.80;;;15.70;99.90;;;;;;5089275;28;20466;-71
2021/10/20 06:47:16;;;;;;;18.50;17.30;;;15.80;99.90;;;;;;5085953;28;20827;-70
2021/10/20 06:49:45;;;;;;;18.70;17.43;;;15.90;99.90;;;;;;5089122;28;20455;-70
2021/10/20 06:52:12;;;;;;;18.53;17.37;;;15.90;99.90;;;;;;5089010;28;20846;-72
2021/10/20 06:54:39;;;;;;;18.17;17.07;;;16.00;99.90;;;;;;5080926;28;20489;-70
2021/10/20 06:57:07;;;;;;;18.67;17.33;;;16.10;99.90;;;;;;5080971;28;20458;-70
2021/10/20 06:59:34;;;;;;;19.77;18.47;;;16.20;99.90;;;;;;5091941;28;20550;-74
2021/10/20 07:02:01;;;;;;;18.40;17.30;;;16.30;99.90;;;;;;5075487;28;20548;-70
2021/10/20 07:04:28;;;;;;;19.03;17.60;;;16.40;99.90;;;;;;5083501;28;20821;-68
2021/10/20 07:06:57;;;;;;;18.80;17.50;;;16.50;99.90;;;;;;5060145;28;21042;-71
2021/10/20 07:09:25;;;;;;;19.23;17.47;;;16.60;99.90;;;;;;5092071;28;21038;-69
2021/10/20 07:11:51;;;;;;;18.80;17.60;;;16.60;99.90;;;;;;5088539;28;20485;-71
2021/10/20 07:14:18;;;;;;;17.83;16.63;;;16.70;99.90;;;;;;5079874;28;20940;-70
2021/10/20 07:16:45;;;;;;;18.07;16.87;;;16.70;99.90;;;;;;5070940;28;20464;-69
2021/10/20 07:19:13;;;;;;;17.90;16.70;;;16.80;99.90;;;;;;5089977;28;20462;-72
2021/10/20 07:21:40;;;;;;;18.60;17.10;;;16.90;99.90;;;;;;5094355;28;21485;-71
2021/10/20 07:24:09;;;;;;;19.47;18.07;;;16.90;99.90;;;;;;5090017;28;21003;-69
2021/10/20 07:26:36;;;;;;;17.90;16.90;;;17.00;99.90;;;;;;5091213;28;20465;-69
2021/10/20 07:29:05;;;;;;;17.80;16.80;;;17.10;99.90;;;;;;5083873;28;21003;-69
2021/10/20 07:31:32;;;;;;;18.70;17.40;;;17.10;99.90;;;;;;5083198;28;20484;-69
2021/10/20 07:34:00;;;;;;;19.17;17.87;;;17.10;99.90;;;;;;5091984;28;20876;-69
2021/10/20 07:36:28;;;;;;;18.73;17.40;;;17.20;99.90;;;;;;5086952;28;20538;-73
2021/10/20 07:38:56;;;;;;;18.43;17.13;;;17.20;99.90;;;;;;5100009;28;20811;-72
2021/10/20 07:41:24;;;;;;;18.17;17.00;;;17.20;99.90;;;;;;5099143;28;20477;-68
2021/10/20 07:43:51;;;;;;;19.37;17.77;;;17.20;99.90;;;;;;5091114;28;20454;-70
2021/10/20 07:46:18;;;;;;;17.60;16.60;;;17.30;99.90;;;;;;5089919;28;20472;-71
2021/10/20 07:48:45;;;;;;;19.00;17.50;;;17.30;99.90;;;;;;5095294;28;20539;-71
2021/10/20 07:51:11;;;;;;;20.20;18.60;;;17.40;99.90;;;;;;5096841;28;21091;-72
2021/10/20 07:53:39;;;;;;;20.17;18.53;;;17.40;99.90;;;;;;5099923;28;20462;-69
2021/10/20 07:56:06;;;;;;;19.20;17.90;;;17.40;99.90;;;;;;5085205;28;20819;-69
2021/10/20 07:58:35;;;;;;;19.03;17.53;;;17.40;99.90;;;;;;5093262;28;20547;-69
2021/10/20 08:01:01;;;;;;;19.53;17.87;;;17.40;99.90;;;;;;5086936;28;20868;-71
2021/10/20 08:03:29;;;;;;;18.73;17.53;;;17.40;99.90;;;;;;5089358;28;20897;-69
2021/10/20 08:05:57;;;;;;;18.67;17.53;;;17.40;99.90;;;;;;5086716;28;20465;-73
2021/10/20 08:08:25;;;;;;;17.17;16.17;;;17.50;99.90;;;;;;5085888;28;20515;-69
2021/10/20 08:10:52;;;;;;;18.43;17.23;;;17.60;99.90;;;;;;5087349;28;20521;-69
2021/10/20 08:13:18;;;;;;;19.13;17.73;;;17.60;99.90;;;;;;5088613;28;20458;-72
2021/10/20 08:15:48;;;;;;;19.23;17.70;;;17.60;99.90;;;;;;5088814;28;20457;-69
2021/10/20 08:18:16;;;;;;;18.73;17.60;;;17.60;99.90;;;;;;5077691;28;20613;-68
2021/10/20 08:20:43;;;;;;;18.60;17.30;;;17.60;99.90;;;;;;5081600;28;20465;-69
2021/10/20 08:23:10;;;;;;;19.73;18.03;;;17.60;99.90;;;;;;5088053;28;20492;-68
2021/10/20 08:25:37;;;;;;;19.00;17.70;;;17.50;99.90;;;;;;5097347;28;20469;-71
2021/10/20 08:28:06;;;;;;;18.37;17.03;;;17.60;99.90;;;;;;5096919;28;20458;-69
2021/10/20 08:30:34;;;;;;;18.50;17.40;;;17.70;99.90;;;;;;5094011;28;20471;-73
2021/10/20 08:33:03;;;;;;;18.77;17.67;;;17.70;99.90;;;;;;5094837;28;20465;-73
2021/10/20 08:35:31;;;;;;;19.60;18.20;;;17.80;99.90;;;;;;5091536;28;20495;-69
2021/10/20 08:38:03;;;;;;;18.80;17.00;;;17.90;99.90;;;;;;5091301;28;20466;-70
2021/10/20 08:40:33;;;;;;;18.90;17.70;;;18.10;99.90;;;;;;5089506;28;20881;-69
2021/10/20 08:43:00;;;;;;;18.30;17.03;;;18.20;99.90;;;;;;5078783;28;20462;-70
2021/10/20 08:45:28;;;;;;;18.97;17.80;;;18.10;99.90;;;;;;5078580;28;20473;-69
2021/10/20 08:47:55;;;;;;;18.23;17.03;;;18.10;99.90;;;;;;5088257;28;20552;-69
2021/10/20 08:50:25;;;;;;;19.47;18.00;;;18.10;99.90;;;;;;5076592;28;20463;-70
2021/10/20 08:52:53;;;;;;;19.17;17.87;;;18.20;99.90;;;;;;5090216;28;20490;-70
2021/10/20 08:55:23;;;;;;;19.30;17.80;;;18.30;99.90;;;;;;5086196;28;20480;-73
2021/10/20 08:57:52;;;;;;;18.53;17.43;;;18.40;99.90;;;;;;5090227;28;20457;-69
2021/10/20 09:00:20;;;;;;;19.30;18.03;;;18.30;99.90;;;;;;5094567;28;20458;-69
2021/10/20 09:02:49;;;;;;;19.60;18.40;;;18.30;99.90;;;;;;5092700;28;20583;-71
2021/10/20 09:05:17;;;;;;;25.30;22.77;;;18.30;99.90;;;;;;5092661;28;20472;-70
2021/10/20 09:07:48;;;;;;;25.80;23.80;;;18.00;99.90;;;;;;5091603;28;20454;-71
2021/10/20 09:10:16;;;;;;;25.17;23.17;;;17.60;99.90;;;;;;5088848;28;20893;-68
2021/10/20 09:12:43;;;;;;;24.00;22.10;;;17.40;99.90;;;;;;5090762;28;20512;-68
2021/10/20 09:15:17;;;;;;;25.23;22.80;;;17.20;99.90;;;;;;5096186;28;20463;-69
2021/10/20 09:17:49;;;;;;;24.10;22.50;;;17.10;99.90;;;;;;5081710;28;20547;-71
2021/10/20 09:20:20;;;;;;;23.10;21.50;;;17.10;99.90;;;;;;5093132;28;20465;-69
2021/10/20 09:22:58;;;;;;;21.80;20.30;;;17.00;99.90;;;;;;5087242;28;21067;-69
2021/10/20 09:25:27;;;;;;;21.17;19.67;;;17.00;99.90;;;;;;5096513;28;20454;-70
2021/10/20 09:27:54;;;;;;;21.00;19.57;;;17.10;99.90;;;;;;5092485;28;20454;-70
2021/10/20 09:30:22;;;;;;;20.13;18.93;;;17.30;99.90;;;;;;5096649;28;20465;-68
2021/10/20 09:32:51;;;;;;;19.80;18.50;;;17.40;99.90;;;;;;5091312;28;20482;-71
2021/10/20 09:35:18;;;;;;;20.70;19.30;;;17.50;99.90;;;;;;5092160;28;20480;-70
2021/10/20 09:37:45;;;;;;;20.17;18.80;;;17.60;99.90;;;;;;5088047;28;20458;-71
2021/10/20 09:40:16;;;;;;;19.93;18.63;;;17.70;99.90;;;;;;5091594;28;20963;-71
2021/10/20 09:42:48;;;;;;;19.00;17.80;;;17.90;99.90;;;;;;5101584;28;20483;-72
2021/10/20 09:45:16;;;;;;;20.07;18.17;;;18.10;99.90;;;;;;5098568;28;20533;-69
2021/10/20 09:47:44;;;;;;;19.93;18.63;;;18.10;99.90;;;;;;5086625;28;20469;-71
2021/10/20 09:50:12;;;;;;;19.50;18.00;;;18.10;99.90;;;;;;5090621;28;20560;-68
2021/10/20 09:52:51;;;;;;;20.17;18.67;;;18.10;99.90;;;;;;5083469;28;20529;-69
2021/10/20 09:55:27;;;;;;;19.33;18.13;;;18.10;99.90;;;;;;5093565;28;20481;-69
2021/10/20 09:57:57;;;;;;;19.23;17.87;;;18.10;99.90;;;;;;5086598;28;20511;-70
2021/10/20 10:00:24;;;;;;;19.50;18.30;;;18.20;99.90;;;;;;5090721;28;20467;-71
2021/10/20 10:02:53;;;;;;;19.47;18.27;;;18.20;99.90;;;;;;5091568;28;20560;-71
2021/10/20 10:05:22;;;;;;;19.20;18.00;;;18.20;99.90;;;;;;5093771;28;20506;-70
2021/10/20 10:07:50;;;;;;;19.57;18.37;;;18.10;99.90;;;;;;5091564;28;20472;-70
2021/10/20 10:10:17;;;;;;;19.37;18.17;;;18.20;99.90;;;;;;5088940;28;20458;-69
2021/10/20 10:12:47;;;;;;;19.63;17.80;;;18.20;99.90;;;;;;5098848;28;20516;-69
2021/10/20 10:15:17;;;;;;;20.47;18.83;;;18.30;99.90;;;;;;5090085;28;20468;-69
2021/10/20 10:17:45;;;;;;;18.87;17.57;;;18.40;99.90;;;;;;5084116;28;20815;-71
2021/10/20 10:20:15;;;;;;;19.83;18.53;;;18.50;99.90;;;;;;5087169;28;20461;-69
2021/10/20 10:22:50;;;;;;;19.40;18.00;;;18.60;99.90;;;;;;5087442;28;21007;-70
2021/10/20 10:25:21;;;;;;;19.23;18.13;;;18.60;99.90;;;;;;5093754;28;20515;-70
2021/10/20 10:28:04;;;;;;;19.73;18.43;;;18.80;99.90;;;;;;5096747;28;20481;-69
2021/10/20 10:30:33;;;;;;;18.80;17.70;;;18.80;99.90;;;;;;5085982;28;20481;-71
2021/10/20 10:33:03;;;;;;;19.17;17.97;;;18.80;99.90;;;;;;5091500;28;20543;-70
2021/10/20 10:35:34;;;;;;;18.70;17.60;;;18.90;99.90;;;;;;5091720;28;20548;-69
2021/10/20 10:38:06;;;;;;;19.00;17.70;;;19.00;99.90;;;;;;5093018;28;20484;-69
2021/10/20 10:40:33;;;;;;;19.60;18.23;;;19.00;99.90;;;;;;5096308;28;20873;-70
2021/10/20 10:43:07;;;;;;;20.00;18.57;;;18.80;99.90;;;;;;5088381;28;20460;-69
2021/10/20 10:45:37;;;;;;;19.33;18.13;;;18.80;99.90;;;;;;5086987;28;20482;-71
2021/10/20 10:48:06;;;;;;;18.97;17.67;;;18.80;99.90;;;;;;5093001;28;20462;-70
2021/10/20 10:50:46;;;;;;;19.67;18.27;;;18.60;99.90;;;;;;5094236;28;20889;-70
2021/10/20 10:53:31;;;;;;;20.23;18.87;;;18.60;99.90;;;;;;5094384;28;20525;-71
2021/10/20 10:56:07;;;;;;;20.20;18.57;;;18.50;99.90;;;;;;5093777;28;20504;-72
2021/10/20 10:59:01;;;;;;;18.33;17.13;;;18.50;99.90;;;;;;5090621;28;20461;-72
2021/10/20 11:01:38;;;;;;;18.97;17.50;;;18.50;99.90;;;;;;5083211;28;20473;-69
2021/10/20 11:04:34;;;;;;;18.67;17.47;;;18.50;99.90;;;;;;5088026;28;22451;-70
2021/10/20 11:07:04;;;;;;;19.23;17.90;;;18.40;99.90;;;;;;5069313;28;20461;-70
2021/10/20 11:09:34;;;;;;;20.47;18.73;;;18.50;99.90;;;;;;5091460;28;20492;-69
2021/10/20 11:12:02;;;;;;;19.67;18.27;;;18.40;99.90;;;;;;5091284;28;21074;-71
2021/10/20 11:14:32;;;;;;;18.60;17.20;;;18.40;99.90;;;;;;5096411;28;20666;-69
2021/10/20 11:17:04;;;;;;;18.47;17.37;;;18.30;99.90;;;;;;5086738;28;21041;-73
2021/10/20 11:19:32;;;;;;;17.73;16.70;;;18.20;99.90;;;;;;5093836;28;20464;-70
2021/10/20 11:22:02;;;;;;;20.73;19.13;;;18.20;99.90;;;;;;5098300;28;20472;-70
2021/10/20 11:24:29;;;;;;;18.40;17.30;;;18.20;99.90;;;;;;5093545;28;21027;-69
2021/10/20 11:26:59;;;;;;;19.20;17.70;;;18.20;99.90;;;;;;5092336;28;20461;-71
2021/10/20 11:29:26;;;;;;;20.20;18.70;;;18.20;99.90;;;;;;5094953;28;20457;-70
2021/10/20 11:31:57;;;;;;;19.20;17.70;;;18.20;99.90;;;;;;5090136;28;20477;-69
2021/10/20 11:34:27;;;;;;;18.60;17.40;;;18.30;99.90;;;;;;5099205;28;20462;-69
2021/10/20 11:36:54;;;;;;;19.37;18.07;;;18.40;99.90;;;;;;5088722;28;20542;-70
2021/10/20 11:39:21;;;;;;;20.00;18.80;;;18.50;99.90;;;;;;5091613;28;20454;-70
2021/10/20 11:41:50;;;;;;;18.53;17.13;;;18.60;99.90;;;;;;5093758;28;20462;-71
2021/10/20 11:44:20;;;;;;;19.00;17.40;;;18.70;99.90;;;;;;5093276;28;20472;-69
2021/10/20 11:46:46;;;;;;;17.87;16.63;;;18.60;99.90;;;;;;5090779;28;20467;-69
2021/10/20 11:49:15;;;;;;;18.83;17.57;;;18.70;99.90;;;;;;5094650;28;20464;-68
2021/10/20 11:51:44;;;;;;;19.10;17.60;;;18.50;99.90;;;;;;5088988;28;20496;-71
2021/10/20 11:54:11;;;;;;;18.67;17.03;;;18.60;99.90;;;;;;5088899;28;20484;-69
2021/10/20 11:56:38;;;;;;;19.60;18.10;;;18.50;99.90;;;;;;5099697;28;20947;-69
2021/10/20 11:59:16;;;;;;;19.07;17.83;;;18.50;99.90;;;;;;5085278;28;20463;-68
2021/10/20 12:01:43;;;;;;;19.70;18.50;;;18.60;99.90;;;;;;5083749;28;20488;-72
2021/10/20 12:04:10;;;;;;;21.93;19.60;;;18.50;99.90;;;;;;5089363;28;20469;-68
2021/10/20 12:06:40;;;;;;;19.20;17.93;;;18.40;99.90;;;;;;5080037;28;20842;-68
2021/10/20 12:09:09;;;;;;;19.50;18.10;;;18.30;99.90;;;;;;5082689;28;20454;-71
2021/10/20 12:11:37;;;;;;;19.60;18.20;;;18.30;99.90;;;;;;5085141;28;20491;-73
2021/10/20 12:14:05;;;;;;;18.80;17.50;;;18.20;99.90;;;;;;5088062;28;20501;-67
2021/10/20 12:16:33;;;;;;;20.37;18.50;;;18.30;99.90;;;;;;5094515;28;21038;-68
2021/10/20 12:19:00;;;;;;;19.77;18.57;;;18.30;99.90;;;;;;5080353;28;20474;-72
2021/10/20 12:21:30;;;;;;;19.67;18.27;;;18.20;99.90;;;;;;5085219;28;20457;-68
2021/10/20 12:24:00;;;;;;;20.63;18.97;;;18.20;99.90;;;;;;5094962;28;20497;-71
2021/10/20 12:26:28;;;;;;;19.77;18.37;;;18.20;99.90;;;;;;5092258;28;20464;-69
2021/10/20 12:28:55;;;;;;;18.60;17.30;;;18.30;99.90;;;;;;5089875;28;20470;-72
2021/10/20 12:31:24;;;;;;;18.37;17.27;;;18.40;99.90;;;;;;5091516;28;20493;-71
2021/10/20 12:33:52;;;;;;;19.03;17.83;;;18.20;99.90;;;;;;5088361;28;20609;-71